Terminal Aerodrome Forecast
Issued by NWS

Home | Current Version | Previous Version | Text Only | Print | Product List | Glossary Off
Versions: 1 2 3 4 5 6 7 8 9 10 11 12 13 14 15 16

896
FTUS43 KTOP 241121
TAFMHK
TAF
KMHK 241121Z 2412/2512 18012KT P6SM FEW250 WS020/19046KT
     FM241400 19022G34KT P6SM FEW250
     FM242300 18014G21KT P6SM FEW250
     FM250200 17009KT P6SM SCT250
     FM250800 15009KT P6SM BKN150 WS020/19041KT=

USA.gov is the U.S. government's official web portal to all federal, state and local government web resources and services.